Witchway — WITCHWA — position and weather

sailwx.info

Track history (hours):
 
Tides and Currents Weather Stations Pressure Air Temp Water Temp Dewpoint Dewpoint Depression Visibility Wind Speed Wind Dir Waves Ship Positions

Witchway

Last reported at 2018-Jan-26 06:06 UTC. Time now 2018-Feb-21 23:30 UTC.
Position S 27°35' E 153°22'.
Warning: this ship's position is 26 days out of date.

Length 8 m.

Type: Pleasure craft. MMSI: 503060180.

Date/timePositionNaut miles runAvg speedWind from/ knotsBaromVisibWave heightAir tempDewpointWater temp
2018-Jan-26 06:06S 27°35' E 153°22'221.4
2018-Jan-26 06:01S 27°36' E 153°24'714.1
2018-Jan-26 05:30S 27°43' E 153°24'1 1.3
2018-Jan-26 04:58S 27°43' E 153°24'0 0.0
2018-Jan-26 04:28S 27°43' E 153°24'0 0.0
2018-Jan-26 03:58S 27°43' E 153°24'0 0.0
2018-Jan-26 03:28S 27°43' E 153°24'0 0.0
2018-Jan-26 02:55S 27°43' E 153°24'0 0.0
2018-Jan-26 02:28S 27°43' E 153°24'0 0.0
2018-Jan-26 01:58S 27°43' E 153°24'0 0.0
2018-Jan-26 01:22S 27°43' E 153°24'410.9
2018-Jan-26 01:01S 27°39' E 153°24'  
2018-Jan-22 08:13S 27°35' E 153°22'521.6
2018-Jan-22 07:59S 27°39' E 153°25'816.1
2018-Jan-22 07:30S 27°47' E 153°25'611.4
2018-Jan-22 07:00S 27°51' E 153°21'1 0.1
2018-Jan-21 22:11S 27°52' E 153°20'1 6.4
2018-Jan-21 21:59S 27°51' E 153°21'3 5.0
2018-Jan-21 21:29S 27°53' E 153°23'5 0.3
2018-Jan-21 05:22S 27°57' E 153°25'513.5
2018-Jan-21 05:00S 27°53' E 153°28'7 5.1
2018-Jan-21 03:43S 27°48' E 153°33'1 5.9
2018-Jan-21 03:29S 27°47' E 153°33'1 1.7
2018-Jan-21 03:00S 27°47' E 153°33'1 1.1
2018-Jan-21 02:29S 27°47' E 153°32'1 1.1
2018-Jan-21 02:00S 27°47' E 153°32'1 1.3
2018-Jan-21 01:30S 27°48' E 153°33'1 1.3
2018-Jan-21 00:58S 27°48' E 153°32'0 0.5
2018-Jan-21 00:29S 27°48' E 153°33'1 2.3
2018-Jan-21 00:00S 27°46' E 153°32'1 1.3
2018-Jan-20 23:30S 27°47' E 153°32'0 0.2
2018-Jan-20 23:00S 27°47' E 153°32'0 0.1
2018-Jan-20 22:30S 27°47' E 153°32'2 4.6
2018-Jan-20 22:00S 27°47' E 153°29'3 5.8
2018-Jan-20 21:28S 27°50' E 153°29'2 5.3
2018-Jan-20 21:00S 27°53' E 153°28'6 0.3
2018-Jan-19 23:22S 27°58' E 153°25'3 9.5
2018-Jan-19 23:00S 27°55' E 153°28'4 0.2
2018-Jan-19 06:48S 27°58' E 153°26'3 0.2
2018-Jan-18 19:53S 27°56' E 153°27'3 0.2
2018-Jan-18 06:43S 27°58' E 153°26'0 0.5
2018-Jan-18 06:30S 27°58' E 153°25'918.5
2018-Jan-18 06:00S 27°49' E 153°25'5 9.4
2018-Jan-18 05:30S 27°44' E 153°24'714.4
2018-Jan-18 05:00S 27°37' E 153°24'  
Track history (hours):
 
Tides and Currents Weather Stations Pressure Air Temp Water Temp Dewpoint Dewpoint Depression Visibility Wind Speed Wind Dir Waves Ship Positions

Witchway

Last reported at 2018-Jan-26 06:06 UTC. Time now 2018-Feb-21 23:30 UTC.
Position S 27°35' E 153°22'.
Warning: this ship's position is 26 days out of date.

Length 8 m.

Type: Pleasure craft. MMSI: 503060180.

Date/timePositionNaut miles runAvg speedWind from/ knotsBaromVisibWave heightAir tempDewpointWater temp
2018-Jan-26 06:06S 27°35' E 153°22'221.4
2018-Jan-26 06:01S 27°36' E 153°24'714.1
2018-Jan-26 05:30S 27°43' E 153°24'1 1.3
2018-Jan-26 04:58S 27°43' E 153°24'0 0.0
2018-Jan-26 04:28S 27°43' E 153°24'0 0.0
2018-Jan-26 03:58S 27°43' E 153°24'0 0.0
2018-Jan-26 03:28S 27°43' E 153°24'0 0.0
2018-Jan-26 02:55S 27°43' E 153°24'0 0.0
2018-Jan-26 02:28S 27°43' E 153°24'0 0.0
2018-Jan-26 01:58S 27°43' E 153°24'0 0.0
2018-Jan-26 01:22S 27°43' E 153°24'410.9
2018-Jan-26 01:01S 27°39' E 153°24'  
2018-Jan-22 08:13S 27°35' E 153°22'521.6
2018-Jan-22 07:59S 27°39' E 153°25'816.1
2018-Jan-22 07:30S 27°47' E 153°25'611.4
2018-Jan-22 07:00S 27°51' E 153°21'1 0.1
2018-Jan-21 22:11S 27°52' E 153°20'1 6.4
2018-Jan-21 21:59S 27°51' E 153°21'3 5.0
2018-Jan-21 21:29S 27°53' E 153°23'5 0.3
2018-Jan-21 05:22S 27°57' E 153°25'513.5
2018-Jan-21 05:00S 27°53' E 153°28'7 5.1
2018-Jan-21 03:43S 27°48' E 153°33'1 5.9
2018-Jan-21 03:29S 27°47' E 153°33'1 1.7
2018-Jan-21 03:00S 27°47' E 153°33'1 1.1
2018-Jan-21 02:29S 27°47' E 153°32'1 1.1
2018-Jan-21 02:00S 27°47' E 153°32'1 1.3
2018-Jan-21 01:30S 27°48' E 153°33'1 1.3
2018-Jan-21 00:58S 27°48' E 153°32'0 0.5
2018-Jan-21 00:29S 27°48' E 153°33'1 2.3
2018-Jan-21 00:00S 27°46' E 153°32'1 1.3
2018-Jan-20 23:30S 27°47' E 153°32'0 0.2
2018-Jan-20 23:00S 27°47' E 153°32'0 0.1
2018-Jan-20 22:30S 27°47' E 153°32'2 4.6
2018-Jan-20 22:00S 27°47' E 153°29'3 5.8
2018-Jan-20 21:28S 27°50' E 153°29'2 5.3
2018-Jan-20 21:00S 27°53' E 153°28'6 0.3
2018-Jan-19 23:22S 27°58' E 153°25'3 9.5
2018-Jan-19 23:00S 27°55' E 153°28'4 0.2
2018-Jan-19 06:48S 27°58' E 153°26'3 0.2
2018-Jan-18 19:53S 27°56' E 153°27'3 0.2
2018-Jan-18 06:43S 27°58' E 153°26'0 0.5
2018-Jan-18 06:30S 27°58' E 153°25'918.5
2018-Jan-18 06:00S 27°49' E 153°25'5 9.4
2018-Jan-18 05:30S 27°44' E 153°24'714.4
2018-Jan-18 05:00S 27°37' E 153°24'  

Dump ship's entire track history